Spelunky HD - Low% No Gold

Definition: A run ending with the win criteria of both the Low% speedrun and the No Gold speedrun combined.


Rank Player Time Rating Spelunker Platform Video Comment
1   Kinnijup 2:43.007 100.00% Scary 5 bomb Olmec, troll gold
2   BlueCadet-3 2:50.916 95.37%
3   Spef 2:50.928 95.37% fast start
4   falafel_raptor 2:51.905 94.82% HeavyBreathing
5   Pibonacci 2:52.516 94.49% Awesome
6   Groomp 2:54.445 93.44% wowzers :)
7   Carlibraun 2:55.166 93.06% When the drip is respectable 😳 skipped a BM for this
8   Hectique 2:56.316 92.45% sub 3! crummy ice caves
9   Buddy7heElf 2:59.520 90.80% Sub 3!
10   d_tea 3:00.105 90.51% Olmec fail
11   DieDai 3:00.162 90.48% 20s 3-1 fuuuck
12   kobs92 3:05.604 87.83% Yay
13   SAIBOT 3:05.754 87.75% boring run
14   chocolatecake5000 3:05.862 87.70% yeet
15   krille71 3:07.318 87.02% Looking better
16   meowmixmix 3:10.969 85.36% 2 pbs in a night :O
17   jjg27 3:11.134 85.28% good improvement!
18   Baq 3:11.623 85.07% spicy 3-1 and 4-3. bad olmec
19   Kirby703 3:11.704 85.03% idk if I'm satisfied, but it's no longer "slow"
20   Vlad 3:12.305 84.76% funky Olmec
21   Cloiss 3:15.471 83.39% Triple PB :O - 🐈temple
22   Man_eats_pizza 3:16.992 82.75% Double pb 😎
23   Kirobsi 3:18.654 82.06% Zamn, awful commentary!!
24   BronxTaco 3:19.827 81.57% olmec crust gold scary...
25   ix 3:21.167 81.03% star baker
26   Nitrome 3:21.353 80.96% Fun run.
27   GC 3:22.189 80.62% Improvised Olmec
28   DaftLunk 3:25.644 79.27% Olmec gold :(
29   Linkruler 3:29.461 77.82% Nice seed, up until lategame
30   Mazerak 3:29.517 77.80% finally bested my oldest pb
31   twiggle 3:31.000 77.25%
32   Polodajaneiro 3:32.024 76.88%
33   ShinGraywords 3:33.763 76.26% 5 hr grind session led to major frustration and minor PB
34   samcv 3:34.803 75.89% could've been sub 3:30 but olmec
35   Mikulus 3:37.864 74.82% thank you blue frog <3
36   TicTacFoe 3:40.269 74.00% this game is fun
37   sleep 3:40.447 73.94% Bad Olmec
38   Sedoxa 3:41.615 73.55% aaannnnnddd another horrible temple :|
39   Bum 3:45.333 72.34% Have a 3:21 i never uploaded
40   InTol 3:47.097 71.78% Some nasty levels
41   Abob71 3:50.908 70.59% BAAAAAAAAAAAAAAAD Olmec
42   Khold 3:52.365 70.15%
43   JakeTreester 3:52.749 70.04% Good Olmec RNG :O
44   WGPL 3:52.850 70.01% Solid run, clean olmec.
45   SchnitzelDX 3:55.633 69.18% 1st no gold run in a year
46   AlwaysOlmec 3:55.766 69.14% Nice levels
47   Eszik 4:05.530 66.39% Finally got it :D Could be better but I'm happy with this
48   Suspense 4:05.805 66.32% Cyan bop
49   MagnetMD 4:06.737 66.07%
50   pojopoopoohead 4:07.105 65.97% Close deaths in 4-1 and 4-2 along with nail biting Olmec
51   HOBT0R 4:07.539 65.85% First time I pulled off the 1-bomb Olmec fight correctly
52   thatmarkguy 4:10.496 65.07% 37th time's the charm. 36 straight temple fails before this
53   E5ten 4:12.528 64.55% sub-5
54   Stiljoz 4:12.647 64.52% God-tier Mines Seed
55   bootsthatshoot 4:16.811 63.47% drunken no gold low% hype
56   saturnin55 4:25.648 61.36% bat
57   Alcoer 4:37.000 58.85%
58   HeinzSkitsvelvet 4:39.143 58.40% Running on PC!
59   Yandie 4:42.259 57.75% yeeeeee
60   GreatStriker 4:43.315 57.54% olmec crushed one ruby
61   JPlay 4:46.195 56.96%
62   Dr. Probably 4:52.549 55.72% FINALLY
63   Maplestrip 4:56.297 55.01% I thought No Gold was hard, but this was easy! 0.o
64   jgunz3 4:56.448 54.99% Low% No Gold (feels good)
65   Pajecka7891 4:57.449 54.80% First pb on new PC!
66   CCheg 4:57.774 54.74% FINALLY!!!!! next up no gold hell :)
67   MikeIsMyIke 5:01.082 54.14% 58s dark 2-4 :(
68   bobbaro 5:02.491 53.89% Finally didn't choke on Olmec
69   Phospho 5:07.825 52.95% Finally! I just needed to slow down all along
70   Konato_K 5:12.042 52.24% Why do only the slow runs get to live ;-;
71   Bodybrest 5:16.537 51.50% just bad 4-3 and Low% too
72   Kittenwarlock 5:17.855 51.28% Inching toward sub 5
73   denis1080 5:20.312 50.89% Wasn't gonna lose 2 LowNG runs in a row on Olmec!
74   MNC mascot 5:42.459 47.60% Olmec bomb toss saved me
75   Vandelay 5:45.548 47.17% I forgot to place my bombs MonkaS
76   kvec 5:46.565 47.03% first completion
77   Skylark 5:48.314 46.80% Spectral Bunny
78   A guy 5:59.886 45.29% *slight* overkill for a first completion. But also SUB 6!
79   Loki Nighton 6:07.511 44.35% Pauper bun is traumatised, must pay for counselling
80   Sawr 6:15.284 43.44%
81   bumperoyster 6:18.952 43.02% first run of the day FeelsGoodMan
82   Sonth 2 6:20.351 42.86% Jesse, I'm sorry // Scuffed Olmec
83   yaddabing 6:21.762 42.70% I love the idea of these extra achievements!
84   Patdog56 6:33.057 41.47% super slowmec but whatevs \o/
85   DiMono 6:36.864 41.07% Woo!
86   courgette 6:37.833 40.97%
87   slink 6:40.933 40.66% THE NIGHTMARE IS OVER
88   Jellyfisch42 6:43.356 40.41% NO GOLD IS DONE!!! Never again...
89   MoNo_Kim 6:47.537 40.00% hi
90   Spencer_PK 6:50.417 39.72% Blocked 3-2 and 3-4. Olmec fight was very casual and fun.
91   AlphaChannel 6:58.024 38.99%
92   Myelin 6:58.506 38.95% been trying for this for a long time
93   ContraMuffin 7:03.397 38.50%
94   Chickenhorse With internet 7:19.127 37.12% Those idiots in the background are my friends. The run: 3:18
95   tuabiht 7:21.713 36.90% Olmec 4 bomb safe strat
96   theZaxanator 7:22.605 36.83% This is shit but I'll come back to it later
97   gjchangmu 8:18.142 32.72% tried for 16 minutes...
98   Egg 8:24.567 32.31% 4 bombs at olmec
99   garebear 8:30.417 31.94% Rare music 1-4. Bees 2-1.
100   Luukie13 11:26.101 23.76% lets go
101   ShadowDx 12:32.084 21.67% Phew